sensor_id;sensor_type;location;lat;lon;timestamp;P1;durP1;ratioP1;P2;durP2;ratioP2
47225;SDS011;32965;64.142;-21.912;2022-07-23T00:02:09;1.63;;;0.80;;
47225;SDS011;32965;64.142;-21.912;2022-07-23T00:04:35;1.65;;;1.17;;
47225;SDS011;32965;64.142;-21.912;2022-07-23T00:07:02;2.42;;;0.80;;
47225;SDS011;32965;64.142;-21.912;2022-07-23T00:09:28;1.35;;;0.85;;
47225;SDS011;32965;64.142;-21.912;2022-07-23T00:11:56;1.55;;;0.88;;
47225;SDS011;32965;64.142;-21.912;2022-07-23T00:14:23;1.70;;;0.73;;
47225;SDS011;32965;64.142;-21.912;2022-07-23T00:16:49;1.10;;;0.50;;
47225;SDS011;32965;64.142;-21.912;2022-07-23T00:19:15;1.27;;;0.65;;
47225;SDS011;32965;64.142;-21.912;2022-07-23T00:21:41;3.35;;;1.65;;
47225;SDS011;32965;64.142;-21.912;2022-07-23T00:24:07;1.30;;;0.98;;
47225;SDS011;32965;64.142;-21.912;2022-07-23T00:26:33;2.05;;;0.90;;
47225;SDS011;32965;64.142;-21.912;2022-07-23T00:28:59;2.75;;;0.88;;
47225;SDS011;32965;64.142;-21.912;2022-07-23T00:31:26;1.10;;;0.63;;
47225;SDS011;32965;64.142;-21.912;2022-07-23T00:33:55;1.10;;;0.35;;
47225;SDS011;32965;64.142;-21.912;2022-07-23T00:36:26;0.85;;;0.60;;
47225;SDS011;32965;64.142;-21.912;2022-07-23T00:38:53;1.27;;;0.55;;
47225;SDS011;32965;64.142;-21.912;2022-07-23T00:41:19;2.55;;;0.70;;
47225;SDS011;32965;64.142;-21.912;2022-07-23T00:43:46;2.50;;;0.80;;
47225;SDS011;32965;64.142;-21.912;2022-07-23T00:46:11;2.67;;;1.08;;
47225;SDS011;32965;64.142;-21.912;2022-07-23T00:48:37;0.80;;;0.60;;
47225;SDS011;32965;64.142;-21.912;2022-07-23T00:51:05;1.33;;;0.70;;
47225;SDS011;32965;64.142;-21.912;2022-07-23T00:53:31;1.08;;;0.65;;
47225;SDS011;32965;64.142;-21.912;2022-07-23T00:55:57;3.42;;;1.20;;
47225;SDS011;32965;64.142;-21.912;2022-07-23T00:58:24;1.17;;;0.77;;
47225;SDS011;32965;64.142;-21.912;2022-07-23T01:00:49;1.00;;;0.70;;
47225;SDS011;32965;64.142;-21.912;2022-07-23T01:03:15;2.88;;;0.70;;
47225;SDS011;32965;64.142;-21.912;2022-07-23T01:05:41;1.52;;;0.68;;
47225;SDS011;32965;64.142;-21.912;2022-07-23T01:08:07;0.70;;;0.50;;
47225;SDS011;32965;64.142;-21.912;2022-07-23T01:10:33;2.95;;;0.90;;
47225;SDS011;32965;64.142;-21.912;2022-07-23T01:13:00;2.42;;;1.17;;
47225;SDS011;32965;64.142;-21.912;2022-07-23T01:15:28;2.40;;;1.00;;
47225;SDS011;32965;64.142;-21.912;2022-07-23T01:17:55;2.85;;;1.30;;
47225;SDS011;32965;64.142;-21.912;2022-07-23T01:20:21;2.35;;;1.17;;
47225;SDS011;32965;64.142;-21.912;2022-07-23T01:22:48;3.30;;;1.63;;
47225;SDS011;32965;64.142;-21.912;2022-07-23T01:25:14;2.63;;;1.95;;
47225;SDS011;32965;64.142;-21.912;2022-07-23T01:27:40;2.97;;;2.00;;
47225;SDS011;32965;64.142;-21.912;2022-07-23T01:30:06;4.20;;;1.58;;
47225;SDS011;32965;64.142;-21.912;2022-07-23T01:32:34;4.50;;;2.35;;
47225;SDS011;32965;64.142;-21.912;2022-07-23T01:34:59;3.08;;;1.92;;
47225;SDS011;32965;64.142;-21.912;2022-07-23T01:37:25;3.88;;;2.13;;
47225;SDS011;32965;64.142;-21.912;2022-07-23T01:39:51;4.13;;;2.30;;
47225;SDS011;32965;64.142;-21.912;2022-07-23T01:42:17;5.05;;;2.47;;
47225;SDS011;32965;64.142;-21.912;2022-07-23T01:44:44;5.53;;;2.20;;
47225;SDS011;32965;64.142;-21.912;2022-07-23T01:47:10;3.05;;;2.13;;
47225;SDS011;32965;64.142;-21.912;2022-07-23T01:49:36;4.20;;;2.53;;
47225;SDS011;32965;64.142;-21.912;2022-07-23T01:52:02;4.32;;;2.47;;
47225;SDS011;32965;64.142;-21.912;2022-07-23T01:54:32;4.35;;;2.00;;
47225;SDS011;32965;64.142;-21.912;2022-07-23T01:56:59;4.78;;;1.90;;
47225;SDS011;32965;64.142;-21.912;2022-07-23T01:59:26;2.45;;;1.67;;
47225;SDS011;32965;64.142;-21.912;2022-07-23T02:01:52;3.28;;;2.03;;
47225;SDS011;32965;64.142;-21.912;2022-07-23T02:04:19;2.55;;;1.58;;
47225;SDS011;32965;64.142;-21.912;2022-07-23T02:06:46;2.97;;;1.77;;
47225;SDS011;32965;64.142;-21.912;2022-07-23T02:09:12;3.22;;;1.80;;
47225;SDS011;32965;64.142;-21.912;2022-07-23T02:11:38;3.00;;;1.60;;
47225;SDS011;32965;64.142;-21.912;2022-07-23T02:14:04;2.35;;;1.30;;
47225;SDS011;32965;64.142;-21.912;2022-07-23T02:16:30;2.33;;;1.30;;
47225;SDS011;32965;64.142;-21.912;2022-07-23T02:18:56;3.58;;;1.73;;
47225;SDS011;32965;64.142;-21.912;2022-07-23T02:21:24;2.97;;;1.30;;
47225;SDS011;32965;64.142;-21.912;2022-07-23T02:23:50;2.15;;;1.58;;
47225;SDS011;32965;64.142;-21.912;2022-07-23T02:26:17;3.22;;;1.65;;
47225;SDS011;32965;64.142;-21.912;2022-07-23T02:28:42;5.60;;;2.08;;
47225;SDS011;32965;64.142;-21.912;2022-07-23T02:31:08;2.17;;;1.38;;
47225;SDS011;32965;64.142;-21.912;2022-07-23T02:33:34;2.92;;;1.65;;
47225;SDS011;32965;64.142;-21.912;2022-07-23T02:35:59;3.47;;;1.90;;
47225;SDS011;32965;64.142;-21.912;2022-07-23T02:38:25;2.40;;;1.55;;
47225;SDS011;32965;64.142;-21.912;2022-07-23T02:40:52;2.20;;;1.25;;
47225;SDS011;32965;64.142;-21.912;2022-07-23T02:43:18;2.30;;;1.60;;
47225;SDS011;32965;64.142;-21.912;2022-07-23T02:45:44;4.10;;;1.92;;
47225;SDS011;32965;64.142;-21.912;2022-07-23T02:48:10;3.97;;;2.25;;
47225;SDS011;32965;64.142;-21.912;2022-07-23T02:50:37;3.58;;;2.85;;
47225;SDS011;32965;64.142;-21.912;2022-07-23T02:53:04;4.00;;;2.22;;
47225;SDS011;32965;64.142;-21.912;2022-07-23T02:55:29;3.13;;;1.92;;
47225;SDS011;32965;64.142;-21.912;2022-07-23T02:57:56;1.92;;;1.20;;
47225;SDS011;32965;64.142;-21.912;2022-07-23T03:00:22;1.63;;;1.10;;
47225;SDS011;32965;64.142;-21.912;2022-07-23T03:02:49;1.38;;;0.82;;
47225;SDS011;32965;64.142;-21.912;2022-07-23T03:05:15;1.75;;;0.60;;
47225;SDS011;32965;64.142;-21.912;2022-07-23T03:07:41;1.90;;;0.50;;
47225;SDS011;32965;64.142;-21.912;2022-07-23T03:10:07;0.52;;;0.40;;
47225;SDS011;32965;64.142;-21.912;2022-07-23T03:12:33;0.85;;;0.30;;
47225;SDS011;32965;64.142;-21.912;2022-07-23T03:14:58;0.40;;;0.30;;
47225;SDS011;32965;64.142;-21.912;2022-07-23T03:17:24;1.25;;;0.40;;
47225;SDS011;32965;64.142;-21.912;2022-07-23T03:19:50;1.25;;;0.20;;
47225;SDS011;32965;64.142;-21.912;2022-07-23T03:22:16;0.30;;;0.20;;
47225;SDS011;32965;64.142;-21.912;2022-07-23T03:24:41;1.50;;;0.20;;
47225;SDS011;32965;64.142;-21.912;2022-07-23T03:27:24;0.17;;;0.17;;
47225;SDS011;32965;64.142;-21.912;2022-07-23T03:29:51;0.38;;;0.30;;
47225;SDS011;32965;64.142;-21.912;2022-07-23T03:32:18;2.55;;;0.60;;
47225;SDS011;32965;64.142;-21.912;2022-07-23T03:34:45;1.08;;;0.77;;
47225;SDS011;32965;64.142;-21.912;2022-07-23T03:37:12;1.10;;;0.70;;
47225;SDS011;32965;64.142;-21.912;2022-07-23T03:39:38;2.85;;;1.55;;
47225;SDS011;32965;64.142;-21.912;2022-07-23T03:42:03;3.50;;;1.30;;
47225;SDS011;32965;64.142;-21.912;2022-07-23T03:44:29;2.35;;;1.13;;
47225;SDS011;32965;64.142;-21.912;2022-07-23T03:46:55;2.17;;;1.00;;
47225;SDS011;32965;64.142;-21.912;2022-07-23T03:49:22;2.55;;;1.20;;
47225;SDS011;32965;64.142;-21.912;2022-07-23T03:51:48;2.30;;;1.40;;
47225;SDS011;32965;64.142;-21.912;2022-07-23T03:54:14;2.72;;;1.10;;
47225;SDS011;32965;64.142;-21.912;2022-07-23T03:56:40;2.20;;;1.10;;
47225;SDS011;32965;64.142;-21.912;2022-07-23T03:59:06;3.33;;;1.20;;
47225;SDS011;32965;64.142;-21.912;2022-07-23T04:01:32;2.83;;;1.60;;
47225;SDS011;32965;64.142;-21.912;2022-07-23T04:03:58;4.18;;;1.90;;
47225;SDS011;32965;64.142;-21.912;2022-07-23T04:06:24;2.35;;;1.63;;
47225;SDS011;32965;64.142;-21.912;2022-07-23T04:08:50;2.40;;;1.55;;
47225;SDS011;32965;64.142;-21.912;2022-07-23T04:11:16;3.53;;;1.73;;
47225;SDS011;32965;64.142;-21.912;2022-07-23T04:13:41;4.20;;;1.48;;
47225;SDS011;32965;64.142;-21.912;2022-07-23T04:16:07;2.60;;;1.23;;
47225;SDS011;32965;64.142;-21.912;2022-07-23T04:18:33;4.20;;;1.00;;
47225;SDS011;32965;64.142;-21.912;2022-07-23T04:20:59;2.83;;;1.33;;
47225;SDS011;32965;64.142;-21.912;2022-07-23T04:23:25;4.90;;;1.13;;
47225;SDS011;32965;64.142;-21.912;2022-07-23T04:25:50;2.92;;;1.30;;
47225;SDS011;32965;64.142;-21.912;2022-07-23T04:28:16;3.90;;;1.10;;
47225;SDS011;32965;64.142;-21.912;2022-07-23T04:30:42;4.63;;;1.70;;
47225;SDS011;32965;64.142;-21.912;2022-07-23T04:33:09;5.28;;;1.17;;
47225;SDS011;32965;64.142;-21.912;2022-07-23T04:35:35;1.58;;;0.80;;
47225;SDS011;32965;64.142;-21.912;2022-07-23T04:38:02;1.05;;;0.60;;
47225;SDS011;32965;64.142;-21.912;2022-07-23T04:40:28;1.00;;;0.60;;
47225;SDS011;32965;64.142;-21.912;2022-07-23T04:42:54;1.73;;;1.00;;
47225;SDS011;32965;64.142;-21.912;2022-07-23T04:45:21;1.60;;;0.70;;
47225;SDS011;32965;64.142;-21.912;2022-07-23T04:47:48;2.90;;;0.93;;
47225;SDS011;32965;64.142;-21.912;2022-07-23T04:50:14;2.78;;;1.00;;
47225;SDS011;32965;64.142;-21.912;2022-07-23T04:52:44;2.33;;;0.88;;
47225;SDS011;32965;64.142;-21.912;2022-07-23T04:55:10;2.67;;;0.90;;
47225;SDS011;32965;64.142;-21.912;2022-07-23T04:57:36;2.50;;;0.82;;
47225;SDS011;32965;64.142;-21.912;2022-07-23T05:00:03;2.72;;;1.02;;
47225;SDS011;32965;64.142;-21.912;2022-07-23T05:02:29;2.50;;;0.90;;
47225;SDS011;32965;64.142;-21.912;2022-07-23T05:04:55;2.05;;;0.80;;
47225;SDS011;32965;64.142;-21.912;2022-07-23T05:07:20;1.75;;;0.90;;
47225;SDS011;32965;64.142;-21.912;2022-07-23T05:09:46;2.78;;;1.10;;
47225;SDS011;32965;64.142;-21.912;2022-07-23T05:12:12;0.95;;;0.60;;
47225;SDS011;32965;64.142;-21.912;2022-07-23T05:14:37;0.82;;;0.50;;
47225;SDS011;32965;64.142;-21.912;2022-07-23T05:17:04;1.35;;;0.70;;
47225;SDS011;32965;64.142;-21.912;2022-07-23T05:19:30;1.15;;;0.52;;
47225;SDS011;32965;64.142;-21.912;2022-07-23T05:21:56;0.90;;;0.60;;
47225;SDS011;32965;64.142;-21.912;2022-07-23T05:24:22;1.73;;;0.47;;
47225;SDS011;32965;64.142;-21.912;2022-07-23T05:26:48;1.83;;;0.60;;
47225;SDS011;32965;64.142;-21.912;2022-07-23T05:29:13;2.13;;;0.70;;
47225;SDS011;32965;64.142;-21.912;2022-07-23T05:31:39;0.28;;;0.25;;
47225;SDS011;32965;64.142;-21.912;2022-07-23T05:34:05;0.82;;;0.45;;
47225;SDS011;32965;64.142;-21.912;2022-07-23T05:36:31;2.05;;;0.40;;
47225;SDS011;32965;64.142;-21.912;2022-07-23T05:38:57;0.82;;;0.30;;
47225;SDS011;32965;64.142;-21.912;2022-07-23T05:41:23;1.55;;;0.22;;
47225;SDS011;32965;64.142;-21.912;2022-07-23T05:43:49;0.28;;;0.15;;
47225;SDS011;32965;64.142;-21.912;2022-07-23T05:46:15;0.70;;;0.30;;
47225;SDS011;32965;64.142;-21.912;2022-07-23T05:48:41;0.10;;;0.10;;
47225;SDS011;32965;64.142;-21.912;2022-07-23T05:51:08;0.68;;;0.30;;
47225;SDS011;32965;64.142;-21.912;2022-07-23T05:53:34;0.30;;;0.20;;
47225;SDS011;32965;64.142;-21.912;2022-07-23T05:56:00;0.28;;;0.10;;
47225;SDS011;32965;64.142;-21.912;2022-07-23T05:58:26;0.45;;;0.25;;
47225;SDS011;32965;64.142;-21.912;2022-07-23T06:00:53;1.00;;;0.30;;
47225;SDS011;32965;64.142;-21.912;2022-07-23T06:03:18;0.80;;;0.40;;
47225;SDS011;32965;64.142;-21.912;2022-07-23T06:05:45;1.20;;;0.55;;
47225;SDS011;32965;64.142;-21.912;2022-07-23T06:08:11;0.45;;;0.30;;
47225;SDS011;32965;64.142;-21.912;2022-07-23T06:10:36;0.50;;;0.30;;
47225;SDS011;32965;64.142;-21.912;2022-07-23T06:13:02;0.70;;;0.17;;
47225;SDS011;32965;64.142;-21.912;2022-07-23T06:15:29;0.20;;;0.15;;
47225;SDS011;32965;64.142;-21.912;2022-07-23T06:17:55;0.30;;;0.20;;
47225;SDS011;32965;64.142;-21.912;2022-07-23T06:20:21;0.52;;;0.32;;
47225;SDS011;32965;64.142;-21.912;2022-07-23T06:22:48;0.30;;;0.20;;
47225;SDS011;32965;64.142;-21.912;2022-07-23T06:25:13;0.93;;;0.50;;
47225;SDS011;32965;64.142;-21.912;2022-07-23T06:27:41;0.88;;;0.70;;
47225;SDS011;32965;64.142;-21.912;2022-07-23T06:30:07;1.67;;;1.08;;
47225;SDS011;32965;64.142;-21.912;2022-07-23T06:32:33;1.95;;;0.70;;
47225;SDS011;32965;64.142;-21.912;2022-07-23T06:34:59;0.95;;;0.60;;
47225;SDS011;32965;64.142;-21.912;2022-07-23T06:37:25;3.17;;;1.15;;
47225;SDS011;32965;64.142;-21.912;2022-07-23T06:39:51;1.80;;;1.35;;
47225;SDS011;32965;64.142;-21.912;2022-07-23T06:42:17;1.13;;;0.82;;
47225;SDS011;32965;64.142;-21.912;2022-07-23T06:44:43;2.08;;;0.80;;
47225;SDS011;32965;64.142;-21.912;2022-07-23T06:47:09;1.98;;;1.25;;
47225;SDS011;32965;64.142;-21.912;2022-07-23T06:49:35;1.20;;;0.90;;
47225;SDS011;32965;64.142;-21.912;2022-07-23T06:52:01;2.15;;;1.25;;
47225;SDS011;32965;64.142;-21.912;2022-07-23T06:54:27;1.55;;;1.00;;
47225;SDS011;32965;64.142;-21.912;2022-07-23T06:56:52;1.92;;;1.40;;
47225;SDS011;32965;64.142;-21.912;2022-07-23T06:59:19;1.60;;;1.05;;
47225;SDS011;32965;64.142;-21.912;2022-07-23T07:01:45;1.15;;;0.93;;
47225;SDS011;32965;64.142;-21.912;2022-07-23T07:04:11;2.67;;;0.80;;
47225;SDS011;32965;64.142;-21.912;2022-07-23T07:06:37;1.00;;;0.82;;
47225;SDS011;32965;64.142;-21.912;2022-07-23T07:09:02;1.13;;;0.85;;
47225;SDS011;32965;64.142;-21.912;2022-07-23T07:11:28;1.42;;;0.93;;
47225;SDS011;32965;64.142;-21.912;2022-07-23T07:13:54;1.55;;;0.98;;
47225;SDS011;32965;64.142;-21.912;2022-07-23T07:16:20;1.00;;;0.75;;
47225;SDS011;32965;64.142;-21.912;2022-07-23T07:18:46;1.17;;;0.93;;
47225;SDS011;32965;64.142;-21.912;2022-07-23T07:21:13;1.13;;;0.77;;
47225;SDS011;32965;64.142;-21.912;2022-07-23T07:23:38;0.90;;;0.57;;
47225;SDS011;32965;64.142;-21.912;2022-07-23T07:26:04;1.67;;;0.80;;
47225;SDS011;32965;64.142;-21.912;2022-07-23T07:28:30;0.85;;;0.57;;
47225;SDS011;32965;64.142;-21.912;2022-07-23T07:30:56;0.82;;;0.52;;
47225;SDS011;32965;64.142;-21.912;2022-07-23T07:33:22;1.05;;;0.50;;
47225;SDS011;32965;64.142;-21.912;2022-07-23T07:35:48;0.70;;;0.50;;
47225;SDS011;32965;64.142;-21.912;2022-07-23T07:38:14;1.15;;;0.32;;
47225;SDS011;32965;64.142;-21.912;2022-07-23T07:40:40;0.47;;;0.28;;
47225;SDS011;32965;64.142;-21.912;2022-07-23T07:43:07;1.33;;;0.38;;
47225;SDS011;32965;64.142;-21.912;2022-07-23T07:45:33;0.80;;;0.40;;
47225;SDS011;32965;64.142;-21.912;2022-07-23T07:47:59;0.52;;;0.30;;
47225;SDS011;32965;64.142;-21.912;2022-07-23T07:50:27;0.40;;;0.20;;
47225;SDS011;32965;64.142;-21.912;2022-07-23T07:52:54;0.80;;;0.40;;
47225;SDS011;32965;64.142;-21.912;2022-07-23T07:55:19;0.90;;;0.40;;
47225;SDS011;32965;64.142;-21.912;2022-07-23T07:57:45;0.60;;;0.30;;
47225;SDS011;32965;64.142;-21.912;2022-07-23T08:00:11;0.50;;;0.13;;
47225;SDS011;32965;64.142;-21.912;2022-07-23T08:05:07;0.40;;;0.20;;
47225;SDS011;32965;64.142;-21.912;2022-07-23T08:07:33;0.20;;;0.13;;
47225;SDS011;32965;64.142;-21.912;2022-07-23T08:10:00;0.10;;;0.10;;
47225;SDS011;32965;64.142;-21.912;2022-07-23T08:12:53;0.32;;;0.10;;
47225;SDS011;32965;64.142;-21.912;2022-07-23T08:15:21;1.75;;;0.35;;
47225;SDS011;32965;64.142;-21.912;2022-07-23T08:17:48;1.95;;;0.30;;
47225;SDS011;32965;64.142;-21.912;2022-07-23T08:20:15;0.63;;;0.20;;
47225;SDS011;32965;64.142;-21.912;2022-07-23T08:22:43;0.50;;;0.40;;
47225;SDS011;32965;64.142;-21.912;2022-07-23T08:25:10;1.05;;;0.30;;
47225;SDS011;32965;64.142;-21.912;2022-07-23T08:27:36;0.10;;;0.10;;
47225;SDS011;32965;64.142;-21.912;2022-07-23T08:30:03;0.30;;;0.15;;
47225;SDS011;32965;64.142;-21.912;2022-07-23T08:32:30;0.30;;;0.10;;
47225;SDS011;32965;64.142;-21.912;2022-07-23T08:34:56;1.55;;;0.30;;
47225;SDS011;32965;64.142;-21.912;2022-07-23T08:37:22;0.43;;;0.28;;
47225;SDS011;32965;64.142;-21.912;2022-07-23T08:39:47;0.43;;;0.43;;
47225;SDS011;32965;64.142;-21.912;2022-07-23T08:42:14;1.35;;;0.40;;
47225;SDS011;32965;64.142;-21.912;2022-07-23T08:44:44;1.20;;;0.30;;
47225;SDS011;32965;64.142;-21.912;2022-07-23T08:47:12;0.75;;;0.30;;
47225;SDS011;32965;64.142;-21.912;2022-07-23T08:49:40;0.80;;;0.40;;
47225;SDS011;32965;64.142;-21.912;2022-07-23T08:52:06;0.30;;;0.22;;
47225;SDS011;32965;64.142;-21.912;2022-07-23T08:54:33;1.35;;;0.20;;
47225;SDS011;32965;64.142;-21.912;2022-07-23T08:57:00;0.20;;;0.10;;
47225;SDS011;32965;64.142;-21.912;2022-07-23T08:59:25;0.35;;;0.35;;
47225;SDS011;32965;64.142;-21.912;2022-07-23T09:01:52;0.52;;;0.40;;
47225;SDS011;32965;64.142;-21.912;2022-07-23T09:04:17;1.02;;;0.30;;
47225;SDS011;32965;64.142;-21.912;2022-07-23T09:06:43;0.77;;;0.25;;
47225;SDS011;32965;64.142;-21.912;2022-07-23T09:09:16;0.35;;;0.30;;
47225;SDS011;32965;64.142;-21.912;2022-07-23T09:11:47;2.47;;;0.30;;
47225;SDS011;32965;64.142;-21.912;2022-07-23T09:14:42;0.63;;;0.25;;
47225;SDS011;32965;64.142;-21.912;2022-07-23T09:17:14;0.73;;;0.43;;
47225;SDS011;32965;64.142;-21.912;2022-07-23T09:19:42;0.43;;;0.23;;
47225;SDS011;32965;64.142;-21.912;2022-07-23T09:22:24;1.40;;;0.30;;
47225;SDS011;32965;64.142;-21.912;2022-07-23T09:25:08;0.32;;;0.30;;
47225;SDS011;32965;64.142;-21.912;2022-07-23T09:30:28;0.93;;;0.55;;
47225;SDS011;32965;64.142;-21.912;2022-07-23T09:33:05;0.80;;;0.40;;
47225;SDS011;32965;64.142;-21.912;2022-07-23T09:35:50;0.98;;;0.73;;
47225;SDS011;32965;64.142;-21.912;2022-07-23T09:38:21;1.23;;;1.13;;
47225;SDS011;32965;64.142;-21.912;2022-07-23T09:41:06;1.60;;;0.98;;
47225;SDS011;32965;64.142;-21.912;2022-07-23T09:43:34;1.27;;;1.02;;
47225;SDS011;32965;64.142;-21.912;2022-07-23T09:46:20;1.90;;;1.40;;
47225;SDS011;32965;64.142;-21.912;2022-07-23T09:48:54;2.25;;;1.35;;
47225;SDS011;32965;64.142;-21.912;2022-07-23T09:51:22;1.05;;;0.88;;
47225;SDS011;32965;64.142;-21.912;2022-07-23T09:54:03;1.75;;;1.20;;
47225;SDS011;32965;64.142;-21.912;2022-07-23T09:56:30;1.65;;;1.30;;
47225;SDS011;32965;64.142;-21.912;2022-07-23T09:58:58;2.45;;;1.55;;
47225;SDS011;32965;64.142;-21.912;2022-07-23T10:01:31;1.75;;;1.38;;
47225;SDS011;32965;64.142;-21.912;2022-07-23T10:03:58;3.75;;;1.30;;
47225;SDS011;32965;64.142;-21.912;2022-07-23T10:06:24;3.17;;;2.03;;
47225;SDS011;32965;64.142;-21.912;2022-07-23T10:08:51;3.47;;;1.63;;
47225;SDS011;32965;64.142;-21.912;2022-07-23T10:11:23;2.28;;;1.33;;
47225;SDS011;32965;64.142;-21.912;2022-07-23T10:13:53;4.55;;;1.63;;
47225;SDS011;32965;64.142;-21.912;2022-07-23T10:16:25;1.65;;;1.20;;
47225;SDS011;32965;64.142;-21.912;2022-07-23T10:18:52;3.47;;;1.92;;
47225;SDS011;32965;64.142;-21.912;2022-07-23T10:21:24;6.10;;;1.77;;
47225;SDS011;32965;64.142;-21.912;2022-07-23T10:32:20;2.47;;;1.20;;
47225;SDS011;32965;64.142;-21.912;2022-07-23T10:40:11;1.58;;;0.80;;
47225;SDS011;32965;64.142;-21.912;2022-07-23T10:42:45;2.15;;;1.00;;
47225;SDS011;32965;64.142;-21.912;2022-07-23T10:45:25;1.40;;;1.10;;
47225;SDS011;32965;64.142;-21.912;2022-07-23T10:56:17;1.42;;;1.05;;
47225;SDS011;32965;64.142;-21.912;2022-07-23T10:59:16;2.08;;;1.13;;
47225;SDS011;32965;64.142;-21.912;2022-07-23T11:01:42;1.67;;;1.40;;
47225;SDS011;32965;64.142;-21.912;2022-07-23T11:04:09;1.83;;;1.67;;
47225;SDS011;32965;64.142;-21.912;2022-07-23T11:09:26;2.67;;;1.35;;
47225;SDS011;32965;64.142;-21.912;2022-07-23T11:22:47;3.03;;;1.73;;
47225;SDS011;32965;64.142;-21.912;2022-07-23T11:27:47;2.28;;;1.63;;
47225;SDS011;32965;64.142;-21.912;2022-07-23T11:32:54;6.72;;;2.22;;
47225;SDS011;32965;64.142;-21.912;2022-07-23T11:35:44;4.15;;;2.10;;
47225;SDS011;32965;64.142;-21.912;2022-07-23T11:38:15;7.93;;;2.10;;
47225;SDS011;32965;64.142;-21.912;2022-07-23T11:40:46;10.88;;;2.10;;
47225;SDS011;32965;64.142;-21.912;2022-07-23T11:43:23;3.30;;;1.90;;
47225;SDS011;32965;64.142;-21.912;2022-07-23T11:45:50;2.88;;;1.63;;
47225;SDS011;32965;64.142;-21.912;2022-07-23T11:50:48;2.58;;;1.92;;
47225;SDS011;32965;64.142;-21.912;2022-07-23T11:53:24;2.08;;;1.50;;
47225;SDS011;32965;64.142;-21.912;2022-07-23T11:55:53;2.40;;;1.67;;
47225;SDS011;32965;64.142;-21.912;2022-07-23T11:58:20;2.10;;;1.63;;
47225;SDS011;32965;64.142;-21.912;2022-07-23T12:00:46;3.15;;;1.60;;
47225;SDS011;32965;64.142;-21.912;2022-07-23T12:03:13;2.17;;;1.50;;
47225;SDS011;32965;64.142;-21.912;2022-07-23T12:05:39;2.28;;;1.60;;
47225;SDS011;32965;64.142;-21.912;2022-07-23T12:08:06;13.85;;;8.57;;
47225;SDS011;32965;64.142;-21.912;2022-07-23T12:10:34;2.92;;;1.77;;
47225;SDS011;32965;64.142;-21.912;2022-07-23T12:13:09;2.15;;;1.55;;
47225;SDS011;32965;64.142;-21.912;2022-07-23T12:15:41;22.30;;;12.95;;
47225;SDS011;32965;64.142;-21.912;2022-07-23T12:18:09;6.22;;;4.22;;
47225;SDS011;32965;64.142;-21.912;2022-07-23T12:20:44;9.15;;;5.90;;
47225;SDS011;32965;64.142;-21.912;2022-07-23T12:23:13;3.35;;;2.40;;
47225;SDS011;32965;64.142;-21.912;2022-07-23T12:25:40;3.30;;;2.35;;
47225;SDS011;32965;64.142;-21.912;2022-07-23T12:30:48;4.15;;;2.33;;
47225;SDS011;32965;64.142;-21.912;2022-07-23T12:35:59;3.67;;;2.28;;
47225;SDS011;32965;64.142;-21.912;2022-07-23T12:38:36;4.03;;;2.40;;
47225;SDS011;32965;64.142;-21.912;2022-07-23T12:41:07;7.25;;;4.57;;
47225;SDS011;32965;64.142;-21.912;2022-07-23T12:43:34;4.28;;;2.60;;
47225;SDS011;32965;64.142;-21.912;2022-07-23T12:46:07;6.75;;;4.22;;
47225;SDS011;32965;64.142;-21.912;2022-07-23T12:51:24;11.63;;;6.72;;
47225;SDS011;32965;64.142;-21.912;2022-07-23T12:54:05;6.27;;;3.70;;
47225;SDS011;32965;64.142;-21.912;2022-07-23T12:56:35;3.78;;;2.70;;
47225;SDS011;32965;64.142;-21.912;2022-07-23T13:01:29;6.50;;;4.25;;
47225;SDS011;32965;64.142;-21.912;2022-07-23T13:06:45;6.45;;;4.25;;
47225;SDS011;32965;64.142;-21.912;2022-07-23T13:09:13;5.55;;;4.03;;
47225;SDS011;32965;64.142;-21.912;2022-07-23T13:14:09;5.43;;;3.78;;
47225;SDS011;32965;64.142;-21.912;2022-07-23T13:16:34;5.47;;;3.80;;
47225;SDS011;32965;64.142;-21.912;2022-07-23T13:19:02;5.85;;;3.75;;
47225;SDS011;32965;64.142;-21.912;2022-07-23T13:21:28;3.72;;;3.33;;
47225;SDS011;32965;64.142;-21.912;2022-07-23T13:23:58;4.13;;;2.80;;
47225;SDS011;32965;64.142;-21.912;2022-07-23T13:26:25;6.35;;;3.72;;
47225;SDS011;32965;64.142;-21.912;2022-07-23T13:28:52;3.72;;;2.88;;
47225;SDS011;32965;64.142;-21.912;2022-07-23T13:31:19;3.63;;;2.60;;
47225;SDS011;32965;64.142;-21.912;2022-07-23T13:33:46;5.93;;;3.65;;
47225;SDS011;32965;64.142;-21.912;2022-07-23T13:36:12;7.57;;;3.22;;
47225;SDS011;32965;64.142;-21.912;2022-07-23T13:38:38;7.78;;;4.53;;
47225;SDS011;32965;64.142;-21.912;2022-07-23T13:41:05;4.93;;;2.92;;
47225;SDS011;32965;64.142;-21.912;2022-07-23T13:43:32;6.25;;;3.22;;
47225;SDS011;32965;64.142;-21.912;2022-07-23T13:45:58;3.15;;;2.10;;
47225;SDS011;32965;64.142;-21.912;2022-07-23T13:48:25;4.00;;;2.58;;
47225;SDS011;32965;64.142;-21.912;2022-07-23T13:50:51;3.95;;;2.22;;
47225;SDS011;32965;64.142;-21.912;2022-07-23T13:53:19;3.20;;;2.35;;
47225;SDS011;32965;64.142;-21.912;2022-07-23T13:55:46;4.10;;;2.17;;
47225;SDS011;32965;64.142;-21.912;2022-07-23T13:58:13;4.38;;;2.63;;
47225;SDS011;32965;64.142;-21.912;2022-07-23T14:00:42;7.00;;;4.00;;
47225;SDS011;32965;64.142;-21.912;2022-07-23T14:03:12;4.75;;;2.95;;
47225;SDS011;32965;64.142;-21.912;2022-07-23T14:05:38;3.50;;;2.63;;
47225;SDS011;32965;64.142;-21.912;2022-07-23T14:08:05;4.00;;;2.53;;
47225;SDS011;32965;64.142;-21.912;2022-07-23T14:10:31;7.45;;;4.00;;
47225;SDS011;32965;64.142;-21.912;2022-07-23T14:12:56;5.75;;;2.97;;
47225;SDS011;32965;64.142;-21.912;2022-07-23T14:15:27;5.30;;;3.33;;
47225;SDS011;32965;64.142;-21.912;2022-07-23T14:17:54;5.00;;;3.00;;
47225;SDS011;32965;64.142;-21.912;2022-07-23T14:20:21;5.05;;;2.40;;
47225;SDS011;32965;64.142;-21.912;2022-07-23T14:22:47;4.20;;;2.30;;
47225;SDS011;32965;64.142;-21.912;2022-07-23T14:25:14;5.90;;;3.85;;
47225;SDS011;32965;64.142;-21.912;2022-07-23T14:27:41;5.93;;;3.38;;
47225;SDS011;32965;64.142;-21.912;2022-07-23T14:30:08;4.68;;;2.50;;
47225;SDS011;32965;64.142;-21.912;2022-07-23T14:32:34;4.35;;;2.35;;
47225;SDS011;32965;64.142;-21.912;2022-07-23T14:35:01;3.33;;;2.60;;
47225;SDS011;32965;64.142;-21.912;2022-07-23T14:37:29;3.87;;;2.00;;
47225;SDS011;32965;64.142;-21.912;2022-07-23T14:39:56;4.60;;;2.85;;
47225;SDS011;32965;64.142;-21.912;2022-07-23T14:42:22;4.35;;;2.80;;
47225;SDS011;32965;64.142;-21.912;2022-07-23T14:44:48;4.00;;;2.40;;
47225;SDS011;32965;64.142;-21.912;2022-07-23T14:47:15;3.75;;;1.98;;
47225;SDS011;32965;64.142;-21.912;2022-07-23T14:49:42;2.90;;;2.17;;
47225;SDS011;32965;64.142;-21.912;2022-07-23T14:52:12;5.85;;;2.50;;
47225;SDS011;32965;64.142;-21.912;2022-07-23T14:54:38;5.72;;;2.33;;
47225;SDS011;32965;64.142;-21.912;2022-07-23T14:57:05;4.40;;;3.10;;
47225;SDS011;32965;64.142;-21.912;2022-07-23T14:59:35;4.65;;;2.65;;
47225;SDS011;32965;64.142;-21.912;2022-07-23T15:02:01;5.47;;;3.03;;
47225;SDS011;32965;64.142;-21.912;2022-07-23T15:04:28;4.88;;;2.88;;
47225;SDS011;32965;64.142;-21.912;2022-07-23T15:06:54;5.43;;;3.65;;
47225;SDS011;32965;64.142;-21.912;2022-07-23T15:09:20;4.70;;;3.30;;
47225;SDS011;32965;64.142;-21.912;2022-07-23T15:11:47;4.32;;;2.85;;
47225;SDS011;32965;64.142;-21.912;2022-07-23T15:14:13;3.75;;;2.85;;
47225;SDS011;32965;64.142;-21.912;2022-07-23T15:16:39;8.60;;;3.40;;
47225;SDS011;32965;64.142;-21.912;2022-07-23T15:19:06;6.30;;;3.22;;
47225;SDS011;32965;64.142;-21.912;2022-07-23T15:21:32;4.43;;;2.85;;
47225;SDS011;32965;64.142;-21.912;2022-07-23T15:23:59;4.45;;;3.30;;
47225;SDS011;32965;64.142;-21.912;2022-07-23T15:26:27;5.32;;;3.58;;
47225;SDS011;32965;64.142;-21.912;2022-07-23T15:28:54;8.20;;;4.18;;